Date,TemperatureHighF,TemperatureAvgF,TemperatureLowF,DewpointHighF,DewpointAvgF,DewpointLowF,HumidityHigh,HumidityAvg,HumidityLow,PressureMaxIn,PressureMinIn,WindSpeedMaxMPH,WindSpeedAvgMPH,GustSpeedMaxMPH,PrecipitationSumIn
2013-3-1,40,36,32,39,35,32,100,98,95,0.00,40.00,3,1,14,0.40
2013-3-2,50,40,34,41,36,34,99,88,64,0.00,40.00,3,2,14,0.14
2013-3-3,38,32,26,37,28,20,99,85,58,0.00,40.00,8,3,25,0.42
2013-3-4,35,27,19,20,18,13,92,71,45,0.00,40.00,4,2,9,0.07
2013-3-5,36,23,8,25,15,5,90,71,43,0.00,40.00,4,2,10,0.00
2013-3-6,36,31,27,31,27,23,97,84,64,0.00,40.00,4,2,9,0.09
2013-3-7,45,35,30,33,31,29,98,87,53,0.00,40.00,8,2,15,0.20
2013-3-8,47,32,21,30,26,20,98,79,43,0.00,40.00,3,1,8,0.02
2013-3-9,49,35,22,29,24,21,95,69,34,0.00,40.00,5,2,10,0.00
2013-3-10,47,36,27,29,26,24,90,69,44,0.00,40.00,9,4,21,0.00
2013-3-11,46,37,31,28,24,14,83,60,27,0.00,40.00,9,4,17,0.00
2013-3-12,35,31,26,33,26,20,99,84,64,0.00,40.00,4,1,7,0.47
2013-3-13,57,38,33,46,37,33,99,95,67,0.00,40.00,3,1,6,0.54
2013-3-14,49,38,32,41,36,32,99,92,71,0.00,40.00,3,1,9,0.01
2013-3-15,54,44,35,38,32,28,92,65,41,0.00,40.00,8,3,19,0.01
2013-3-16,46,38,33,38,34,31,99,89,64,0.00,40.00,11,2,28,0.12
2013-3-17,37,31,22,34,28,20,97,88,77,0.00,40.00,6,3,20,0.35
2013-3-18,38,28,22,29,24,20,94,83,61,0.00,40.00,5,2,14,0.18
2013-3-19,45,30,13,25,20,10,93,70,30,0.00,40.00,4,2,10,0.01
2013-3-20,39,31,23,37,29,21,98,90,79,0.00,40.00,8,2,25,0.31
2013-3-21,38,34,29,32,24,18,86,67,46,0.00,40.00,8,5,23,0.14
2013-3-22,40,30,26,25,18,8,87,64,34,0.00,40.00,5,3,13,0.00
2013-3-23,40,25,15,20,12,7,91,59,26,0.00,40.00,7,2,17,0.00
2013-3-24,42,27,16,18,14,11,91,63,31,0.00,40.00,5,2,11,0.00
2013-3-25,49,27,11,19,14,8,91,65,26,0.00,40.00,4,1,11,0.00
2013-3-26,54,30,15,24,18,12,91,67,28,0.00,40.00,3,1,8,0.00
2013-3-27,55,33,20,27,22,18,93,71,30,0.00,40.00,6,1,10,0.00
2013-3-28,53,45,35,41,37,34,97,75,55,0.00,40.00,3,2,7,0.05
2013-3-29,57,40,31,40,35,31,99,86,42,0.00,40.00,4,2,16,0.05
2013-3-30,61,42,28,37,30,-100,98,72,31,0.00,40.00,7,2,11,0.04
2013-3-31,61,43,26,32,29,25,95,62,28,0.00,40.00,4,2,13,0.00